createdAt,value
2024-02-04T00:01:08.669Z,10.25
2024-02-04T00:03:40.740Z,14.57
2024-02-04T00:06:14.679Z,9.40
2024-02-04T00:08:45.131Z,10.88
2024-02-04T00:11:16.535Z,11.68
2024-02-04T00:13:46.754Z,14.30
2024-02-04T00:16:20.711Z,8.82
2024-02-04T00:18:48.582Z,10.20
2024-02-04T00:21:17.527Z,7.35
2024-02-04T00:23:47.381Z,7.55
2024-02-04T00:26:16.608Z,7.30
2024-02-04T00:28:44.627Z,8.98
2024-02-04T00:31:14.449Z,12.85
2024-02-04T00:33:43.534Z,13.95
2024-02-04T00:36:11.157Z,7.90
2024-02-04T00:38:38.680Z,8.38
2024-02-04T00:41:31.555Z,9.95
2024-02-04T00:43:58.859Z,9.35
2024-02-04T00:46:29.388Z,8.45
2024-02-04T00:48:57.484Z,12.93
2024-02-04T00:51:29.180Z,14.65
2024-02-04T00:53:57.508Z,10.63
2024-02-04T00:56:59.387Z,8.70
2024-02-04T00:59:24.852Z,8.10
2024-02-04T01:01:57.532Z,8.88
2024-02-04T01:04:29.751Z,8.48
2024-02-04T01:09:35.991Z,7.57
2024-02-04T01:12:07.976Z,13.52
2024-02-04T01:14:39.050Z,8.30
2024-02-04T01:17:06.779Z,9.57
2024-02-04T01:19:38.090Z,10.07
2024-02-04T01:22:07.169Z,10.15
2024-02-04T01:24:39.287Z,11.68
2024-02-04T01:27:09.948Z,10.05
2024-02-04T01:29:42.821Z,12.48
2024-02-04T01:32:17.869Z,5.57
2024-02-04T01:34:48.071Z,6.38
2024-02-04T01:37:16.319Z,8.05
2024-02-04T01:39:44.366Z,9.25
2024-02-04T01:42:16.047Z,9.18
2024-02-04T01:44:44.742Z,10.93
2024-02-04T01:47:16.121Z,11.13
2024-02-04T01:49:45.676Z,7.38
2024-02-04T01:52:14.322Z,10.25
2024-02-04T01:54:46.353Z,8.35
2024-02-04T01:57:16.378Z,9.75
2024-02-04T01:59:46.905Z,7.10
2024-02-04T02:02:14.793Z,7.10
2024-02-04T02:04:42.746Z,6.57
2024-02-04T02:07:11.954Z,5.28
2024-02-04T02:09:42.827Z,7.60
2024-02-04T02:12:25.622Z,8.60
2024-02-04T02:15:14.986Z,9.65
2024-02-04T02:17:54.077Z,8.52
2024-02-04T02:21:32.238Z,6.07
2024-02-04T02:24:19.589Z,10.38
2024-02-04T02:26:51.408Z,10.90
2024-02-04T02:29:21.298Z,13.13
2024-02-04T02:31:57.979Z,8.15
2024-02-04T02:34:34.889Z,8.95
2024-02-04T02:37:28.137Z,6.15
2024-02-04T02:40:36.379Z,7.13
2024-02-04T02:43:11.500Z,7.35
2024-02-04T02:45:46.089Z,11.77
2024-02-04T02:48:19.279Z,8.98
2024-02-04T02:53:33.063Z,4.25
2024-02-04T02:56:00.812Z,6.78
2024-02-04T02:58:27.896Z,11.02
2024-02-04T03:00:56.036Z,5.40
2024-02-04T03:03:23.891Z,8.48
2024-02-04T03:05:51.582Z,9.10
2024-02-04T03:08:44.564Z,6.18
2024-02-04T03:11:31.888Z,9.98
2024-02-04T03:14:18.698Z,8.00
2024-02-04T03:16:46.936Z,7.22
2024-02-04T03:19:17.367Z,10.57
2024-02-04T03:21:49.682Z,8.13
2024-02-04T03:24:21.784Z,12.82
2024-02-04T03:26:54.949Z,12.65
2024-02-04T03:29:28.369Z,5.57
2024-02-04T03:31:57.719Z,7.50
2024-02-04T03:34:26.964Z,7.68
2024-02-04T03:36:55.056Z,7.35
2024-02-04T03:39:23.072Z,12.95
2024-02-04T03:41:50.942Z,9.65
2024-02-04T03:44:26.411Z,6.68
2024-02-04T03:46:57.763Z,11.20
2024-02-04T03:49:26.964Z,5.57
2024-02-04T03:51:59.641Z,10.48
2024-02-04T03:54:27.330Z,9.15
2024-02-04T03:56:54.894Z,10.32
2024-02-04T03:59:25.355Z,8.95
2024-02-04T04:01:55.259Z,7.32
2024-02-04T04:04:23.482Z,11.27
2024-02-04T04:06:50.933Z,9.02
2024-02-04T04:09:22.994Z,7.68
2024-02-04T04:11:55.886Z,9.07
2024-02-04T04:14:24.104Z,6.22
2024-02-04T04:16:51.738Z,10.05
2024-02-04T04:19:37.003Z,9.43
2024-02-04T04:22:10.063Z,5.78
2024-02-04T04:24:39.952Z,7.18
2024-02-04T04:27:07.526Z,5.53
2024-02-04T04:29:34.871Z,6.18
2024-02-04T04:32:03.000Z,9.73
2024-02-04T04:34:36.242Z,7.28
2024-02-04T04:37:03.763Z,6.78
2024-02-04T04:39:32.208Z,10.95
2024-02-04T04:42:02.346Z,7.15
2024-02-04T04:44:33.502Z,9.73
2024-02-04T04:47:03.560Z,8.73
2024-02-04T04:49:32.059Z,6.75
2024-02-04T04:52:03.642Z,7.20
2024-02-04T04:54:33.800Z,8.23
2024-02-04T04:57:07.138Z,5.30
2024-02-04T04:59:36.141Z,8.45
2024-02-04T05:02:03.527Z,8.48
2024-02-04T05:04:41.929Z,9.43
2024-02-04T05:07:10.305Z,12.60
2024-02-04T05:09:38.137Z,6.78
2024-02-04T05:12:06.353Z,5.78
2024-02-04T05:14:34.303Z,5.78
2024-02-04T05:17:01.830Z,7.30
2024-02-04T05:19:32.162Z,5.18
2024-02-04T05:22:05.221Z,10.25
2024-02-04T05:24:32.977Z,7.15
2024-02-04T05:27:18.451Z,8.70
2024-02-04T05:29:51.300Z,8.15
2024-02-04T05:32:21.904Z,7.75
2024-02-04T05:34:59.219Z,7.82
2024-02-04T05:37:27.106Z,9.32
2024-02-04T05:39:57.131Z,9.38
2024-02-04T05:42:27.499Z,5.20
2024-02-04T05:44:54.768Z,5.15
2024-02-04T05:47:22.778Z,9.27
2024-02-04T05:49:50.960Z,12.20
2024-02-04T05:52:18.502Z,5.15
2024-02-04T05:54:49.405Z,7.35
2024-02-04T05:57:24.080Z,7.57
2024-02-04T05:59:56.404Z,11.20
2024-02-04T06:02:27.773Z,6.63
2024-02-04T06:04:56.003Z,9.25
2024-02-04T06:07:27.325Z,6.97
2024-02-04T06:09:57.754Z,7.20
2024-02-04T06:12:25.473Z,7.18
2024-02-04T06:14:56.187Z,9.68
2024-02-04T06:17:34.143Z,9.05
2024-02-04T06:20:05.545Z,9.15
2024-02-04T06:22:34.908Z,14.90
2024-02-04T06:25:02.561Z,7.63
2024-02-04T06:27:33.173Z,10.93
2024-02-04T06:30:11.589Z,7.88
2024-02-04T06:32:42.141Z,8.93
2024-02-04T06:35:15.338Z,7.85
2024-02-04T06:37:44.028Z,8.70
2024-02-04T06:40:20.797Z,10.50
2024-02-04T06:42:48.963Z,5.88
2024-02-04T06:45:16.400Z,6.00
2024-02-04T06:47:52.212Z,8.77
2024-02-04T06:50:19.931Z,9.02
2024-02-04T06:52:47.856Z,6.97
2024-02-04T06:55:15.437Z,11.27
2024-02-04T06:57:43.597Z,8.02
2024-02-04T07:00:14.225Z,6.43
2024-02-04T07:02:50.667Z,8.23
2024-02-04T07:05:18.678Z,5.22
2024-02-04T07:07:47.369Z,8.25
2024-02-04T07:10:16.063Z,11.70
2024-02-04T07:12:46.389Z,14.75
2024-02-04T07:15:13.963Z,7.63
2024-02-04T07:17:41.691Z,6.63
2024-02-04T07:20:15.935Z,9.65
2024-02-04T07:22:44.810Z,5.53
2024-02-04T07:25:12.579Z,5.50
2024-02-04T07:27:40.002Z,9.52
2024-02-04T07:30:16.153Z,5.90
2024-02-04T07:35:21.095Z,5.32
2024-02-04T07:37:51.301Z,5.43
2024-02-04T07:40:21.125Z,4.30
2024-02-04T07:42:51.324Z,4.93
2024-02-04T07:45:21.941Z,4.95
2024-02-04T07:47:49.793Z,6.38
2024-02-04T07:50:17.455Z,4.38
2024-02-04T07:52:45.607Z,6.45
2024-02-04T07:55:16.579Z,6.65
2024-02-04T07:57:45.191Z,6.57
2024-02-04T08:00:13.321Z,3.67
2024-02-04T08:02:41.607Z,9.65
2024-02-04T08:05:09.419Z,8.38
2024-02-04T08:07:43.394Z,9.77
2024-02-04T08:10:13.936Z,6.15
2024-02-04T08:12:41.834Z,6.90
2024-02-04T08:15:12.800Z,6.53
2024-02-04T08:17:49.023Z,6.88
2024-02-04T08:20:17.656Z,9.90
2024-02-04T08:22:47.425Z,14.38
2024-02-04T08:25:22.198Z,8.85
2024-02-04T08:27:52.177Z,10.52
2024-02-04T08:30:20.540Z,11.38
2024-02-04T08:32:53.488Z,7.82
2024-02-04T08:35:20.770Z,8.25
2024-02-04T08:37:51.016Z,8.18
2024-02-04T08:40:29.350Z,4.18
2024-02-04T08:42:56.715Z,6.88
2024-02-04T08:45:24.849Z,6.82
2024-02-04T08:47:55.523Z,7.63
2024-02-04T08:50:26.377Z,6.22
2024-02-04T08:52:53.912Z,5.85
2024-02-04T08:58:32.508Z,6.20
2024-02-04T09:01:00.034Z,7.72
2024-02-04T09:03:31.163Z,8.93
2024-02-04T09:06:02.428Z,11.18
2024-02-04T09:08:29.710Z,6.25
2024-02-04T09:11:00.080Z,7.03
2024-02-04T09:13:27.576Z,7.47
2024-02-04T09:15:55.819Z,8.50
2024-02-04T09:18:26.604Z,5.70
2024-02-04T09:20:57.149Z,6.13
2024-02-04T09:23:27.273Z,5.18
2024-02-04T09:25:57.701Z,5.32
2024-02-04T09:28:30.462Z,10.35
2024-02-04T09:31:05.050Z,7.63
2024-02-04T09:33:33.273Z,9.23
2024-02-04T09:36:05.605Z,14.73
2024-02-04T09:38:59.643Z,10.68
2024-02-04T09:41:33.439Z,14.60
2024-02-04T09:44:06.405Z,9.65
2024-02-04T09:46:34.568Z,10.88
2024-02-04T09:49:04.189Z,9.43
2024-02-04T09:51:32.132Z,9.95
2024-02-04T09:54:16.633Z,9.80
2024-02-04T09:56:46.618Z,8.82
2024-02-04T09:59:18.879Z,4.53
2024-02-04T10:01:51.217Z,5.80
2024-02-04T10:04:32.853Z,5.90
2024-02-04T10:07:04.773Z,7.47
2024-02-04T10:09:38.854Z,8.18
2024-02-04T10:12:12.336Z,9.38
2024-02-04T10:14:48.332Z,3.85
2024-02-04T10:17:17.534Z,4.43
2024-02-04T10:19:44.873Z,10.48
2024-02-04T10:22:13.144Z,6.25
2024-02-04T10:24:49.253Z,11.55
2024-02-04T10:27:26.611Z,7.85
2024-02-04T10:30:01.880Z,7.78
2024-02-04T10:32:35.515Z,4.88
2024-02-04T10:35:06.334Z,10.00
2024-02-04T10:37:33.675Z,5.20
2024-02-04T10:40:13.809Z,8.80
2024-02-04T10:42:46.374Z,8.27
2024-02-04T10:45:17.142Z,6.00
2024-02-04T10:47:52.515Z,5.45
2024-02-04T10:50:21.281Z,5.10
2024-02-04T10:52:51.115Z,8.75
2024-02-04T10:55:29.237Z,5.13
2024-02-04T10:58:00.511Z,4.40
2024-02-04T11:00:29.981Z,10.70
2024-02-04T11:02:58.798Z,7.43
2024-02-04T11:05:28.131Z,9.07
2024-02-04T11:08:07.050Z,6.32
2024-02-04T11:10:40.617Z,5.43
2024-02-04T11:13:18.040Z,4.55
2024-02-04T11:15:47.170Z,3.35
2024-02-04T11:18:34.882Z,5.85
2024-02-04T11:21:17.390Z,5.88
2024-02-04T11:24:11.617Z,6.70
2024-02-04T11:26:52.159Z,5.88
2024-02-04T11:29:20.942Z,7.93
2024-02-04T11:31:51.440Z,6.55
2024-02-04T11:34:20.130Z,8.90
2024-02-04T11:36:47.666Z,8.23
2024-02-04T11:39:26.975Z,5.82
2024-02-04T11:41:57.572Z,6.18
2024-02-04T11:44:28.439Z,5.85
2024-02-04T11:46:57.147Z,8.57
2024-02-04T11:49:28.049Z,6.53
2024-02-04T11:51:57.723Z,9.27
2024-02-04T11:54:27.349Z,6.95
2024-02-04T11:56:56.938Z,6.57
2024-02-04T11:59:27.811Z,4.88
2024-02-04T12:01:59.575Z,9.93
2024-02-04T12:04:32.751Z,6.32
2024-02-04T12:07:00.416Z,5.88
2024-02-04T12:09:40.239Z,4.72
2024-02-04T12:12:10.132Z,6.22
2024-02-04T12:14:40.693Z,6.72
2024-02-04T12:17:12.480Z,4.05
2024-02-04T12:19:44.357Z,4.05
2024-02-04T12:22:12.982Z,7.50
2024-02-04T12:24:40.753Z,5.25
2024-02-04T12:27:08.835Z,3.30
2024-02-04T12:29:39.492Z,7.00
2024-02-04T12:32:10.012Z,5.70
2024-02-04T12:34:58.016Z,7.10
2024-02-04T12:37:32.817Z,8.30
2024-02-04T12:40:01.075Z,4.03
2024-02-04T12:42:45.008Z,3.28
2024-02-04T12:45:15.878Z,2.75
2024-02-04T12:47:43.641Z,3.83
2024-02-04T12:50:13.815Z,6.38
2024-02-04T12:52:45.964Z,4.50
2024-02-04T12:55:35.092Z,3.88
2024-02-04T12:58:10.792Z,5.18
2024-02-04T13:00:39.752Z,9.95
2024-02-04T13:03:11.713Z,6.03
2024-02-04T13:05:39.768Z,5.43
2024-02-04T13:08:09.510Z,7.65
2024-02-04T13:10:41.200Z,10.18
2024-02-04T13:13:17.371Z,8.80
2024-02-04T13:15:47.768Z,7.07
2024-02-04T13:18:25.206Z,8.30
2024-02-04T13:20:55.552Z,7.60
2024-02-04T13:23:26.446Z,4.85
2024-02-04T13:25:54.155Z,5.70
2024-02-04T13:28:22.266Z,6.53
2024-02-04T13:30:49.613Z,4.60
2024-02-04T13:33:22.063Z,4.50
2024-02-04T13:35:55.840Z,5.03
2024-02-04T13:38:23.088Z,5.40
2024-02-04T13:40:50.494Z,5.00
2024-02-04T13:43:20.497Z,5.07
2024-02-04T13:45:48.054Z,5.63
2024-02-04T13:48:20.257Z,5.82
2024-02-04T13:50:48.066Z,7.80
2024-02-04T13:53:22.880Z,7.20
2024-02-04T13:55:59.862Z,5.80
2024-02-04T13:58:27.845Z,9.05
2024-02-04T14:00:56.164Z,6.20
2024-02-04T14:03:26.378Z,7.82
2024-02-04T14:05:56.505Z,9.70
2024-02-04T14:08:31.434Z,7.32
2024-02-04T14:10:59.879Z,7.85
2024-02-04T14:13:29.962Z,8.85
2024-02-04T14:15:58.343Z,8.55
2024-02-04T14:18:26.664Z,8.82
2024-02-04T14:20:58.984Z,6.57
2024-02-04T14:23:26.960Z,5.00
2024-02-04T14:25:57.187Z,8.35
2024-02-04T14:28:30.325Z,9.00
2024-02-04T14:31:03.495Z,7.28
2024-02-04T14:33:31.323Z,4.40
2024-02-04T14:36:01.704Z,6.75
2024-02-04T14:38:40.547Z,5.57
2024-02-04T14:41:08.581Z,8.23
2024-02-04T14:43:40.129Z,8.20
2024-02-04T14:46:08.115Z,6.78
2024-02-04T14:48:42.870Z,9.02
2024-02-04T14:51:12.714Z,7.15
2024-02-04T14:53:42.009Z,8.40
2024-02-04T14:56:12.159Z,7.45
2024-02-04T14:58:39.922Z,14.05
2024-02-04T15:01:07.693Z,9.05
2024-02-04T15:03:38.240Z,8.23
2024-02-04T15:06:09.275Z,11.45
2024-02-04T15:08:38.303Z,11.43
2024-02-04T15:11:05.824Z,12.68
2024-02-04T15:13:34.491Z,10.32
2024-02-04T15:16:06.252Z,10.55
2024-02-04T15:18:33.638Z,12.18
2024-02-04T15:21:09.653Z,9.90
2024-02-04T15:23:40.939Z,10.90
2024-02-04T15:26:11.203Z,11.90
2024-02-04T15:28:39.913Z,10.70
2024-02-04T15:31:11.149Z,10.18
2024-02-04T15:33:44.885Z,8.35
2024-02-04T15:36:12.638Z,8.75
2024-02-04T15:38:40.670Z,7.80
2024-02-04T15:41:08.850Z,7.28
2024-02-04T15:43:39.800Z,8.68
2024-02-04T15:46:13.338Z,11.40
2024-02-04T15:48:44.663Z,10.68
2024-02-04T15:51:19.302Z,13.88
2024-02-04T15:53:47.554Z,13.80
2024-02-04T15:56:20.988Z,10.93
2024-02-04T15:58:51.774Z,10.73
2024-02-04T16:01:26.022Z,8.23
2024-02-04T16:03:56.243Z,8.90
2024-02-04T16:06:26.341Z,8.82
2024-02-04T16:08:56.248Z,20.88
2024-02-04T16:11:32.227Z,9.93
2024-02-04T16:14:04.095Z,7.03
2024-02-04T16:16:40.091Z,7.55
2024-02-04T16:19:09.222Z,15.75
2024-02-04T16:24:07.791Z,12.20
2024-02-04T16:26:35.975Z,7.53
2024-02-04T16:29:05.717Z,9.68
2024-02-04T16:31:33.184Z,5.80
2024-02-04T16:34:00.939Z,10.82
2024-02-04T16:36:32.489Z,9.35
2024-02-04T16:39:00.074Z,10.52
2024-02-04T16:41:27.696Z,8.43
2024-02-04T16:43:55.587Z,10.55
2024-02-04T16:46:25.751Z,7.93
2024-02-04T16:48:53.423Z,9.75
2024-02-04T16:51:29.351Z,10.15
2024-02-04T16:53:58.702Z,11.82
2024-02-04T16:56:26.604Z,11.10
2024-02-04T16:58:53.990Z,9.65
2024-02-04T17:01:21.314Z,8.50
2024-02-04T17:03:53.715Z,9.93
2024-02-04T17:06:21.737Z,8.70
2024-02-04T17:08:50.095Z,8.38
2024-02-04T17:11:21.935Z,7.18
2024-02-04T17:16:34.960Z,8.95
2024-02-04T17:19:31.834Z,8.30
2024-02-04T17:22:06.378Z,6.15
2024-02-04T17:24:41.856Z,8.90
2024-02-04T17:27:16.474Z,9.77
2024-02-04T17:29:48.372Z,8.55
2024-02-04T17:32:20.533Z,8.15
2024-02-04T17:34:49.003Z,6.05
2024-02-04T17:37:16.999Z,11.38
2024-02-04T17:39:45.037Z,10.68
2024-02-04T17:42:13.333Z,9.95
2024-02-04T17:44:43.513Z,9.40
2024-02-04T17:47:14.775Z,14.13
2024-02-04T17:49:44.357Z,12.13
2024-02-04T17:52:15.043Z,11.82
2024-02-04T17:54:42.797Z,12.52
2024-02-04T17:57:12.751Z,9.98
2024-02-04T17:59:42.932Z,14.52
2024-02-04T18:02:10.437Z,9.98
2024-02-04T18:04:38.896Z,9.15
2024-02-04T18:07:10.037Z,8.88
2024-02-04T18:09:40.421Z,11.35
2024-02-04T18:12:08.283Z,15.43
2024-02-04T18:14:40.342Z,12.93
2024-02-04T18:17:14.334Z,15.25
2024-02-04T18:19:45.387Z,8.82
2024-02-04T18:22:12.897Z,7.97
2024-02-04T18:24:40.985Z,6.63
2024-02-04T18:27:08.336Z,7.10
2024-02-04T18:29:37.787Z,6.60
2024-02-04T18:32:06.019Z,7.03
2024-02-04T18:34:39.364Z,7.72
2024-02-04T18:37:16.225Z,10.55
2024-02-04T18:39:43.519Z,8.95
2024-02-04T18:44:48.197Z,9.57
2024-02-04T18:47:15.761Z,9.50
2024-02-04T18:49:44.454Z,10.30
2024-02-04T18:52:17.394Z,11.52
2024-02-04T18:54:44.916Z,7.22
2024-02-04T18:57:15.823Z,7.90
2024-02-04T18:59:47.260Z,9.43
2024-02-04T19:02:15.448Z,7.05
2024-02-04T19:04:42.739Z,9.38
2024-02-04T19:07:10.324Z,8.55
2024-02-04T19:09:39.558Z,9.02
2024-02-04T19:12:17.293Z,8.95
2024-02-04T19:14:45.811Z,8.73
2024-02-04T19:17:15.706Z,11.32
2024-02-04T19:19:49.904Z,8.25
2024-02-04T19:22:39.040Z,8.00
2024-02-04T19:25:08.698Z,7.60
2024-02-04T19:27:45.992Z,10.25
2024-02-04T19:30:16.478Z,7.25
2024-02-04T19:32:50.478Z,7.85
2024-02-04T19:35:22.635Z,7.13
2024-02-04T19:37:55.097Z,9.65
2024-02-04T19:40:27.423Z,9.30
2024-02-04T19:42:55.183Z,5.07
2024-02-04T19:45:26.654Z,5.75
2024-02-04T19:47:54.818Z,5.63
2024-02-04T19:50:23.105Z,9.57
2024-02-04T19:52:50.767Z,18.38
2024-02-04T19:55:23.687Z,10.77
2024-02-04T19:57:51.347Z,7.28
2024-02-04T20:00:19.782Z,7.75
2024-02-04T20:02:49.259Z,8.05
2024-02-04T20:05:19.182Z,7.63
2024-02-04T20:07:49.323Z,10.02
2024-02-04T20:10:17.569Z,8.35
2024-02-04T20:12:49.675Z,8.88
2024-02-04T20:15:28.986Z,9.15
2024-02-04T20:18:00.681Z,7.18
2024-02-04T20:23:00.372Z,10.23
2024-02-04T20:25:34.024Z,9.80
2024-02-04T20:28:01.890Z,7.05
2024-02-04T20:30:34.357Z,9.88
2024-02-04T20:33:14.455Z,9.93
2024-02-04T20:35:48.547Z,8.82
2024-02-04T20:38:16.519Z,10.57
2024-02-04T20:40:44.271Z,10.90
2024-02-04T20:43:13.709Z,9.93
2024-02-04T20:45:45.464Z,9.70
2024-02-04T20:48:16.191Z,8.15
2024-02-04T20:50:45.810Z,6.00
2024-02-04T20:53:16.249Z,8.30
2024-02-04T20:55:43.862Z,11.15
2024-02-04T20:58:11.985Z,8.65
2024-02-04T21:00:43.935Z,9.13
2024-02-04T21:03:17.326Z,5.50
2024-02-04T21:05:49.884Z,6.25
2024-02-04T21:08:34.283Z,6.43
2024-02-04T21:11:02.070Z,5.25
2024-02-04T21:13:31.244Z,8.15
2024-02-04T21:15:59.082Z,7.38
2024-02-04T21:18:32.690Z,5.07
2024-02-04T21:21:05.254Z,5.53
2024-02-04T21:23:32.783Z,4.60
2024-02-04T21:26:00.102Z,4.28
2024-02-04T21:28:42.986Z,7.22
2024-02-04T21:31:16.286Z,3.63
2024-02-04T21:33:45.297Z,4.05
2024-02-04T21:36:12.924Z,4.03
2024-02-04T21:38:45.939Z,4.53
2024-02-04T21:41:22.596Z,3.28
2024-02-04T21:43:53.870Z,3.22
2024-02-04T21:46:22.512Z,4.80
2024-02-04T21:48:57.032Z,3.03
2024-02-04T21:51:30.926Z,2.35
2024-02-04T21:54:00.911Z,3.15
2024-02-04T21:56:31.893Z,4.55
2024-02-04T21:58:59.393Z,3.47
2024-02-04T22:01:32.828Z,2.35
2024-02-04T22:04:01.123Z,2.30
2024-02-04T22:06:33.582Z,2.50
2024-02-04T22:09:02.230Z,3.33
2024-02-04T22:11:31.311Z,2.15
2024-02-04T22:13:59.311Z,2.55
2024-02-04T22:16:30.109Z,1.63
2024-02-04T22:18:57.382Z,1.42
2024-02-04T22:21:32.743Z,1.42
2024-02-04T22:24:03.030Z,1.58
2024-02-04T22:26:31.073Z,1.15
2024-02-04T22:28:58.473Z,1.60
2024-02-04T22:31:34.602Z,2.80
2024-02-04T22:34:05.100Z,1.38
2024-02-04T22:36:34.458Z,0.95
2024-02-04T22:39:11.233Z,2.05
2024-02-04T22:41:42.845Z,1.50
2024-02-04T22:44:18.756Z,1.98
2024-02-04T22:46:46.314Z,2.05
2024-02-04T22:49:16.905Z,2.28
2024-02-04T22:51:44.836Z,4.88
2024-02-04T22:54:36.022Z,2.30
2024-02-04T22:57:13.474Z,2.55
2024-02-04T22:59:46.973Z,2.25
2024-02-04T23:02:14.853Z,1.48
2024-02-04T23:04:42.382Z,2.67
2024-02-04T23:07:16.185Z,3.63
2024-02-04T23:09:55.590Z,2.92
2024-02-04T23:12:23.266Z,1.52
2024-02-04T23:14:53.668Z,2.53
2024-02-04T23:17:24.509Z,1.60
2024-02-04T23:19:54.878Z,2.75
2024-02-04T23:22:22.499Z,3.17
2024-02-04T23:24:54.104Z,1.65
2024-02-04T23:27:28.358Z,2.88
2024-02-04T23:29:59.292Z,1.92
2024-02-04T23:32:32.181Z,2.25
2024-02-04T23:35:06.119Z,2.13
2024-02-04T23:37:35.300Z,1.55
2024-02-04T23:40:08.095Z,1.92
2024-02-04T23:42:36.297Z,1.45
2024-02-04T23:45:05.758Z,1.75
2024-02-04T23:47:35.105Z,2.53
2024-02-04T23:50:12.857Z,3.53
2024-02-04T23:52:47.287Z,3.53
2024-02-04T23:55:16.467Z,3.17
2024-02-04T23:57:47.904Z,4.13
